createdAt,value
2023-10-06T03:21:58.173Z,100973.44
2023-10-06T03:25:01.507Z,100973.44
2023-10-06T03:28:05.649Z,100978.81
2023-10-06T03:31:23.643Z,100977.06
2023-10-06T03:34:27.300Z,100978.16
2023-10-06T03:37:37.804Z,100984.00
2023-10-06T03:40:58.257Z,100985.13
2023-10-06T03:44:06.733Z,100986.19
2023-10-06T03:47:10.111Z,100980.63
2023-10-06T03:50:14.878Z,100980.88
2023-10-06T03:53:17.140Z,100982.81
2023-10-06T03:56:20.235Z,100992.97
2023-10-06T03:59:24.608Z,100995.94
2023-10-06T04:02:28.204Z,100993.16
2023-10-06T04:05:30.721Z,100993.84
2023-10-06T04:08:32.944Z,100996.81
2023-10-06T04:11:35.801Z,101000.72
2023-10-06T04:14:38.014Z,101004.62
2023-10-06T04:17:40.609Z,101008.12
2023-10-06T04:20:44.289Z,101009.66
2023-10-06T04:23:46.750Z,101005.19
2023-10-06T04:26:48.956Z,101013.84
2023-10-06T04:29:53.912Z,101017.28
2023-10-06T04:32:56.613Z,101015.94
2023-10-06T04:36:09.084Z,101016.13
2023-10-06T04:39:16.965Z,101016.03
2023-10-06T04:42:20.060Z,101021.00
2023-10-06T04:45:22.305Z,101025.75
2023-10-06T04:48:24.810Z,101027.66
2023-10-06T04:51:28.423Z,101032.25
2023-10-06T04:54:31.477Z,101032.63
2023-10-06T04:57:33.666Z,101028.19
2023-10-06T05:00:36.176Z,101038.66
2023-10-06T05:03:45.043Z,101041.09
2023-10-06T05:06:48.074Z,101037.75
2023-10-06T05:09:50.732Z,101045.59
2023-10-06T05:12:53.910Z,101046.31
2023-10-06T05:15:56.528Z,101055.00
2023-10-06T05:18:59.030Z,101062.00
2023-10-06T05:22:01.718Z,101062.91
2023-10-06T05:25:05.639Z,101075.59
2023-10-06T05:28:17.822Z,101078.41
2023-10-06T05:31:20.656Z,101083.44
2023-10-06T05:34:24.595Z,101083.44
2023-10-06T05:37:27.082Z,101083.09
2023-10-06T05:40:32.160Z,101083.34
2023-10-06T05:43:34.659Z,101084.16
2023-10-06T05:46:37.460Z,101090.22
2023-10-06T05:49:46.665Z,101090.94
2023-10-06T05:52:53.114Z,101096.25
2023-10-06T05:55:56.249Z,101102.44
2023-10-06T05:58:58.546Z,101108.37
2023-10-06T06:02:03.333Z,101112.34
2023-10-06T06:05:09.064Z,101104.13
2023-10-06T06:08:11.399Z,101111.06
2023-10-06T06:11:14.754Z,101107.22
2023-10-06T06:14:18.117Z,101111.41
2023-10-06T06:17:21.774Z,101116.38
2023-10-06T06:20:24.061Z,101122.03
2023-10-06T06:23:26.807Z,101119.81
2023-10-06T06:26:30.874Z,101120.00
2023-10-06T06:29:33.364Z,101126.16
2023-10-06T06:32:36.590Z,101121.94
2023-10-06T06:35:43.228Z,101126.09
2023-10-06T06:38:46.617Z,101121.50
2023-10-06T06:41:49.134Z,101122.72
2023-10-06T06:44:55.124Z,101126.38
2023-10-06T06:47:57.769Z,101139.31
2023-10-06T06:51:01.003Z,101147.78
2023-10-06T06:54:04.546Z,101146.00
2023-10-06T06:57:06.748Z,101158.91
2023-10-06T07:00:16.772Z,101165.06
2023-10-06T07:03:19.208Z,101168.56
2023-10-06T07:06:22.320Z,101167.22
2023-10-06T07:09:24.675Z,101170.25
2023-10-06T07:12:27.223Z,101176.91
2023-10-06T07:15:30.559Z,101180.47
2023-10-06T07:18:33.672Z,101177.06
2023-10-06T07:21:35.951Z,101176.69
2023-10-06T07:24:38.759Z,101174.81
2023-10-06T07:27:42.269Z,101184.44
2023-10-06T07:30:45.027Z,101183.53
2023-10-06T07:33:52.841Z,101185.84
2023-10-06T07:36:55.320Z,101188.78
2023-10-06T07:39:57.476Z,101192.31
2023-10-06T07:42:59.992Z,101200.44
2023-10-06T07:46:08.809Z,101191.12
2023-10-06T07:49:11.926Z,101192.50
2023-10-06T07:52:14.179Z,101197.00
2023-10-06T07:55:18.138Z,101193.28
2023-10-06T07:58:20.395Z,101189.87
2023-10-06T08:01:22.965Z,101201.66
2023-10-06T08:04:25.498Z,101200.56
2023-10-06T08:07:28.879Z,101205.44
2023-10-06T08:10:32.213Z,101206.72
2023-10-06T08:13:34.932Z,101199.47
2023-10-06T08:16:38.764Z,101204.84
2023-10-06T08:19:41.027Z,101206.97
2023-10-06T08:22:47.807Z,101210.88
2023-10-06T08:26:01.017Z,101211.97
2023-10-06T08:29:05.681Z,101216.44
2023-10-06T08:32:08.021Z,101224.56
2023-10-06T08:35:14.401Z,101209.75
2023-10-06T08:38:18.425Z,101216.47
2023-10-06T08:41:27.657Z,101228.72
2023-10-06T08:44:30.546Z,101228.69
2023-10-06T08:47:41.996Z,101252.88
2023-10-06T08:51:00.311Z,101235.62
2023-10-06T08:54:05.751Z,101219.03
2023-10-06T08:57:12.111Z,101236.38
2023-10-06T09:00:25.144Z,101224.84
2023-10-06T09:03:29.018Z,101215.88
2023-10-06T09:06:32.890Z,101244.19
2023-10-06T09:09:35.526Z,101236.78
2023-10-06T09:12:39.001Z,101231.00
2023-10-06T09:15:42.200Z,101248.69
2023-10-06T09:19:01.680Z,101254.69
2023-10-06T09:22:08.102Z,101231.78
2023-10-06T09:25:11.671Z,101257.78
2023-10-06T09:28:18.293Z,101306.50
2023-10-06T09:31:37.985Z,101265.78
2023-10-06T09:34:40.534Z,101254.69
2023-10-06T09:37:43.095Z,101235.06
2023-10-06T09:40:45.951Z,101223.06
2023-10-06T09:43:49.624Z,101227.69
2023-10-06T09:46:54.423Z,101217.59
2023-10-06T09:49:59.337Z,101226.09
2023-10-06T09:53:06.751Z,101213.56
2023-10-06T09:56:12.472Z,101209.63
2023-10-06T09:59:15.517Z,101195.94
2023-10-06T10:02:22.172Z,101197.44
2023-10-06T10:05:25.589Z,101231.56
2023-10-06T10:08:30.050Z,101261.00
2023-10-06T10:11:40.586Z,101296.16
2023-10-06T10:15:01.113Z,101273.28
2023-10-06T10:18:15.876Z,101250.81
2023-10-06T10:21:19.199Z,101286.00
2023-10-06T10:27:28.280Z,101246.06
2023-10-06T10:31:14.850Z,101316.47
2023-10-06T10:34:25.267Z,101340.72
2023-10-06T10:37:28.266Z,101329.84
2023-10-06T10:40:33.117Z,101373.66
2023-10-06T10:43:49.842Z,101481.91
2023-10-06T10:47:01.526Z,101527.12
2023-10-06T10:50:06.516Z,101560.56
2023-10-06T10:53:09.461Z,101592.00
2023-10-06T10:56:14.570Z,101632.75
2023-10-06T11:02:20.743Z,101672.97
2023-10-06T11:05:23.581Z,101740.19
2023-10-06T11:08:27.647Z,101820.31
2023-10-06T11:11:31.664Z,101853.56
2023-10-06T11:14:39.970Z,101904.41
2023-10-06T11:17:43.449Z,101944.31
2023-10-06T11:20:47.210Z,101936.25
2023-10-06T11:23:49.580Z,101939.03
2023-10-06T11:26:52.445Z,102020.34
2023-10-06T11:29:58.292Z,101963.44
2023-10-06T11:33:05.885Z,101982.47
2023-10-06T11:36:08.899Z,101910.12
2023-10-06T11:39:11.430Z,101855.56
2023-10-06T11:42:26.054Z,101729.03
2023-10-06T11:45:29.079Z,101587.53
2023-10-06T11:48:37.107Z,101432.41
2023-10-06T11:51:40.972Z,101347.06
2023-10-06T11:54:43.347Z,101271.88
2023-10-06T11:57:47.398Z,101266.44
2023-10-06T12:00:50.110Z,101268.66
2023-10-06T12:03:53.073Z,101237.78
2023-10-06T12:06:56.486Z,101167.59
2023-10-06T12:10:07.870Z,101175.03
2023-10-06T12:13:11.666Z,101160.81
2023-10-06T12:16:15.508Z,101107.13
2023-10-06T12:19:17.758Z,101132.78
2023-10-06T12:22:30.027Z,101065.34
2023-10-06T12:25:42.735Z,101055.00
2023-10-06T12:28:45.335Z,101044.88
2023-10-06T12:31:48.904Z,101052.34
2023-10-06T12:34:51.881Z,101047.91
2023-10-06T12:37:55.314Z,101070.59
2023-10-06T12:40:57.982Z,101039.19
2023-10-06T12:44:05.867Z,101039.34
2023-10-06T12:47:12.242Z,101002.56
2023-10-06T12:50:20.440Z,101020.37
2023-10-06T12:53:23.277Z,100989.09
2023-10-06T12:56:25.634Z,100982.00
2023-10-06T12:59:28.240Z,100994.00
2023-10-06T13:02:33.010Z,100977.62
2023-10-06T13:05:35.665Z,100997.56
2023-10-06T13:08:39.418Z,100971.81
2023-10-06T13:11:41.977Z,100942.88
2023-10-06T13:14:44.565Z,100973.75
2023-10-06T13:17:51.515Z,100938.34
2023-10-06T13:20:53.885Z,100946.91
2023-10-06T13:24:07.406Z,100987.28
2023-10-06T13:27:09.950Z,101000.63
2023-10-06T13:30:15.954Z,100978.00
2023-10-06T13:33:19.363Z,101063.44
2023-10-06T13:36:22.097Z,101053.09
2023-10-06T13:39:26.736Z,101053.31
2023-10-06T13:42:29.468Z,101095.88
2023-10-06T13:45:32.324Z,101081.00
2023-10-06T13:48:35.996Z,101053.44
2023-10-06T13:51:38.824Z,101041.19
2023-10-06T13:54:41.319Z,101020.53
2023-10-06T13:57:48.241Z,101031.13
2023-10-06T14:00:51.570Z,101049.66
2023-10-06T14:03:54.101Z,101016.53
2023-10-06T14:06:57.011Z,101001.34
2023-10-06T14:09:59.616Z,101015.44
2023-10-06T14:13:03.398Z,101021.56
2023-10-06T14:16:11.804Z,101026.59
2023-10-06T14:19:13.964Z,101028.28
2023-10-06T14:22:22.284Z,101010.37
2023-10-06T14:25:27.906Z,100991.59
2023-10-06T14:28:30.330Z,100997.75
2023-10-06T14:31:49.327Z,100970.22
2023-10-06T14:34:59.310Z,100955.91
2023-10-06T14:38:20.191Z,100962.84
2023-10-06T14:41:41.215Z,100943.31
2023-10-06T14:45:02.061Z,100954.03
2023-10-06T14:48:05.792Z,100939.72
2023-10-06T14:51:08.962Z,100941.38
2023-10-06T14:54:12.594Z,100905.09
2023-10-06T14:57:14.995Z,100908.50
2023-10-06T15:00:17.503Z,100933.19
2023-10-06T15:03:20.018Z,100933.03
2023-10-06T15:06:22.921Z,100925.84
2023-10-06T15:09:27.239Z,100900.56
2023-10-06T15:12:29.750Z,100892.31
2023-10-06T15:15:31.909Z,100892.69
2023-10-06T15:18:34.952Z,100903.84
2023-10-06T15:21:40.664Z,100916.72
2023-10-06T15:24:43.153Z,100943.03
2023-10-06T15:27:45.355Z,100939.25
